createdAt,value
2018-04-22T00:00:19.364Z,0
2018-04-22T00:01:19.298Z,0
2018-04-22T00:02:19.728Z,0
2018-04-22T00:03:19.744Z,0
2018-04-22T00:04:19.228Z,0
2018-04-22T00:05:19.576Z,0
2018-04-22T00:06:21.086Z,0
2018-04-22T00:07:20.711Z,0
2018-04-22T00:08:21.587Z,0
2018-04-22T00:09:20.955Z,0
2018-04-22T00:10:21.041Z,0
2018-04-22T00:11:21.377Z,0
2018-04-22T00:12:21.088Z,0
2018-04-22T00:13:20.729Z,0
2018-04-22T00:14:21.005Z,0
2018-04-22T00:15:21.273Z,0
2018-04-22T00:16:21.044Z,0
2018-04-22T00:17:21.368Z,0
2018-04-22T00:18:21.985Z,0
2018-04-22T00:19:21.421Z,0
2018-04-22T00:20:21.364Z,0
2018-04-22T00:22:12.277Z,0
2018-04-22T00:22:23.410Z,0
2018-04-22T00:23:22.927Z,0
2018-04-22T00:24:23.343Z,0
2018-04-22T00:25:23.542Z,0
2018-04-22T00:26:23.468Z,0
2018-04-22T00:27:23.836Z,0
2018-04-22T00:28:24.230Z,0
2018-04-22T00:29:23.754Z,0
2018-04-22T00:30:24.443Z,0
2018-04-22T00:31:24.864Z,0
2018-04-22T00:32:24.624Z,0
2018-04-22T00:33:24.878Z,0
2018-04-22T00:34:25.078Z,0
2018-04-22T00:35:25.462Z,0
2018-04-22T00:36:25.506Z,0
2018-04-22T00:37:24.995Z,0
2018-04-22T00:38:25.665Z,0
2018-04-22T00:39:25.635Z,0
2018-04-22T00:40:25.367Z,0
2018-04-22T00:41:25.422Z,0
2018-04-22T00:42:25.419Z,0
2018-04-22T00:43:25.207Z,0
2018-04-22T00:44:25.892Z,0
2018-04-22T00:45:25.910Z,0
2018-04-22T00:46:25.932Z,0
2018-04-22T00:47:25.691Z,0
2018-04-22T00:48:25.548Z,0
2018-04-22T00:49:25.897Z,0
2018-04-22T00:50:25.782Z,0
2018-04-22T00:51:26.552Z,0
2018-04-22T00:52:26.113Z,0
2018-04-22T00:53:26.435Z,0
2018-04-22T00:54:27.007Z,0
2018-04-22T00:55:27.055Z,0
2018-04-22T00:56:27.286Z,0
2018-04-22T00:57:27.481Z,0
2018-04-22T00:58:28.001Z,0
2018-04-22T00:59:27.889Z,0
2018-04-22T01:00:28.514Z,0
2018-04-22T01:01:28.386Z,0
2018-04-22T01:02:28.520Z,0
2018-04-22T01:03:28.822Z,0
2018-04-22T01:04:29.058Z,0
2018-04-22T01:05:29.256Z,0
2018-04-22T01:06:29.824Z,0
2018-04-22T01:07:29.527Z,0
2018-04-22T01:08:29.685Z,0
2018-04-22T01:09:29.966Z,0
2018-04-22T01:10:29.578Z,0
2018-04-22T01:11:30.136Z,0
2018-04-22T01:12:30.876Z,0
2018-04-22T01:13:30.575Z,0
2018-04-22T01:14:30.241Z,0
2018-04-22T01:15:31.036Z,0
2018-04-22T01:16:31.182Z,0
2018-04-22T01:17:31.972Z,0
2018-04-22T01:18:31.876Z,0
2018-04-22T01:19:32.264Z,0
2018-04-22T01:20:32.125Z,0
2018-04-22T01:21:32.505Z,0
2018-04-22T01:22:33.175Z,0
2018-04-22T01:23:33.218Z,0
2018-04-22T01:24:33.348Z,0
2018-04-22T01:25:33.752Z,0
2018-04-22T01:26:33.576Z,0
2018-04-22T01:27:34.109Z,0
2018-04-22T01:28:33.696Z,0
2018-04-22T01:29:33.698Z,0
2018-04-22T01:30:34.188Z,0
2018-04-22T01:31:34.644Z,0
2018-04-22T01:32:35.112Z,0
2018-04-22T01:33:35.127Z,0
2018-04-22T01:34:34.559Z,0
2018-04-22T01:35:35.156Z,0
2018-04-22T01:36:35.585Z,0
2018-04-22T01:37:35.385Z,0
2018-04-22T01:38:35.366Z,0
2018-04-22T01:39:35.767Z,0
2018-04-22T01:40:35.419Z,0
2018-04-22T01:41:35.913Z,0
2018-04-22T01:42:36.329Z,0
2018-04-22T01:43:36.187Z,0
2018-04-22T01:44:36.582Z,0
2018-04-22T01:45:38.199Z,0
2018-04-22T01:46:37.480Z,0
2018-04-22T01:47:37.172Z,0
2018-04-22T01:48:36.934Z,0
2018-04-22T01:49:37.639Z,0
2018-04-22T01:50:37.123Z,0
2018-04-22T01:51:37.420Z,0
2018-04-22T01:52:37.827Z,0
2018-04-22T01:53:37.707Z,0
2018-04-22T01:54:37.640Z,0
2018-04-22T01:55:38.045Z,0
2018-04-22T01:56:38.423Z,0
2018-04-22T01:57:39.059Z,0
2018-04-22T01:58:39.216Z,0
2018-04-22T01:59:39.359Z,0
2018-04-22T02:00:39.690Z,0
2018-04-22T02:01:40.235Z,0
2018-04-22T02:02:40.189Z,0
2018-04-22T02:03:40.388Z,0
2018-04-22T02:04:40.159Z,0
2018-04-22T02:05:40.619Z,0
2018-04-22T02:06:40.924Z,0
2018-04-22T02:07:40.948Z,0
2018-04-22T02:08:41.137Z,0
2018-04-22T02:09:40.908Z,0
2018-04-22T02:10:41.104Z,0
2018-04-22T02:11:41.836Z,0
2018-04-22T02:12:41.608Z,0
2018-04-22T02:13:41.618Z,0
2018-04-22T02:14:41.808Z,0
2018-04-22T02:15:42.110Z,0
2018-04-22T02:16:41.876Z,0
2018-04-22T02:17:42.621Z,0
2018-04-22T02:18:42.633Z,0
2018-04-22T02:19:42.677Z,0
2018-04-22T02:20:42.698Z,0
2018-04-22T02:21:42.895Z,0
2018-04-22T02:22:42.908Z,0
2018-04-22T02:23:43.110Z,0
2018-04-22T02:24:43.321Z,0
2018-04-22T02:25:43.282Z,0
2018-04-22T02:26:43.556Z,0
2018-04-22T02:27:43.786Z,0
2018-04-22T02:28:43.808Z,0
2018-04-22T02:29:43.753Z,0
2018-04-22T02:30:44.485Z,0
2018-04-22T02:31:44.258Z,0
2018-04-22T02:32:44.735Z,0
2018-04-22T02:33:45.224Z,0
2018-04-22T02:34:45.314Z,0
2018-04-22T02:35:45.056Z,0
2018-04-22T02:36:45.552Z,0
2018-04-22T02:37:45.306Z,0
2018-04-22T02:38:45.334Z,0
2018-04-22T02:39:46.075Z,0
2018-04-22T02:40:46.532Z,0
2018-04-22T02:41:46.554Z,0
2018-04-22T02:42:46.365Z,0
2018-04-22T02:43:46.344Z,0
2018-04-22T02:44:46.792Z,0
2018-04-22T02:45:47.368Z,0
2018-04-22T02:46:47.032Z,0
2018-04-22T02:47:47.783Z,0
2018-04-22T02:48:47.571Z,0
2018-04-22T02:49:47.479Z,0
2018-04-22T02:50:47.153Z,0
2018-04-22T02:51:48.213Z,0
2018-04-22T02:52:47.602Z,0
2018-04-22T02:53:48.300Z,0
2018-04-22T02:54:48.265Z,0
2018-04-22T02:55:47.739Z,0
2018-04-22T02:56:49.617Z,0
2018-04-22T02:57:48.366Z,0
2018-04-22T02:58:49.571Z,0
2018-04-22T02:59:49.210Z,0
2018-04-22T03:00:50.727Z,0
2018-04-22T03:01:50.696Z,0
2018-04-22T03:02:51.234Z,0
2018-04-22T03:03:51.367Z,0
2018-04-22T03:04:51.749Z,0
2018-04-22T03:05:51.513Z,0
2018-04-22T03:06:51.795Z,0
2018-04-22T03:07:51.366Z,0
2018-04-22T03:08:49.555Z,0
2018-04-22T03:09:49.028Z,0
2018-04-22T03:10:49.257Z,0
2018-04-22T03:11:50.044Z,0
2018-04-22T03:12:49.394Z,0
2018-04-22T03:13:50.190Z,0
2018-04-22T03:14:49.728Z,0
2018-04-22T03:15:49.706Z,0
2018-04-22T03:16:49.950Z,0
2018-04-22T03:17:49.974Z,0
2018-04-22T03:18:50.018Z,0
2018-04-22T03:19:49.989Z,0
2018-04-22T03:20:50.083Z,0
2018-04-22T03:21:50.053Z,0
2018-04-22T03:22:50.236Z,0
2018-04-22T03:23:50.382Z,0
2018-04-22T03:24:51.072Z,4
2018-04-22T03:25:50.721Z,0
2018-04-22T03:26:51.138Z,0
2018-04-22T03:27:51.550Z,4
2018-04-22T03:28:51.740Z,0
2018-04-22T03:29:51.756Z,4
2018-04-22T03:30:51.782Z,0
2018-04-22T03:31:52.207Z,4
2018-04-22T03:32:51.675Z,4
2018-04-22T03:33:51.816Z,4
2018-04-22T03:34:52.479Z,4
2018-04-22T03:35:52.504Z,8
2018-04-22T03:36:52.538Z,8
2018-04-22T03:37:52.426Z,8
2018-04-22T03:38:52.917Z,12
2018-04-22T03:39:52.966Z,12
2018-04-22T03:40:53.344Z,12
2018-04-22T03:41:53.757Z,16
2018-04-22T03:42:53.544Z,16
2018-04-22T03:43:53.748Z,20
2018-04-22T03:44:53.885Z,24
2018-04-22T03:45:54.546Z,28
2018-04-22T03:46:54.335Z,28
2018-04-22T03:47:54.099Z,32
2018-04-22T03:48:54.688Z,40
2018-04-22T03:49:55.344Z,40
2018-04-22T03:50:55.426Z,48
2018-04-22T03:51:55.419Z,52
2018-04-22T03:52:55.240Z,56
2018-04-22T03:53:55.397Z,64
2018-04-22T03:54:55.431Z,68
2018-04-22T03:55:55.983Z,76
2018-04-22T03:56:55.780Z,80
2018-04-22T03:57:56.211Z,92
2018-04-22T03:58:55.856Z,96
2018-04-22T03:59:56.402Z,108
2018-04-22T04:00:56.860Z,116
2018-04-22T04:01:57.550Z,128
2018-04-22T04:02:57.429Z,140
2018-04-22T04:03:57.798Z,152
2018-04-22T04:04:57.909Z,164
2018-04-22T04:05:58.323Z,176
2018-04-22T04:06:58.771Z,192
2018-04-22T04:07:58.139Z,204
2018-04-22T04:08:58.911Z,228
2018-04-22T04:09:59.072Z,240
2018-04-22T04:10:59.051Z,260
2018-04-22T04:11:59.627Z,280
2018-04-22T04:12:59.488Z,300
2018-04-22T04:14:01.235Z,316
2018-04-22T04:15:00.324Z,336
2018-04-22T04:16:01.050Z,356
2018-04-22T04:17:00.728Z,380
2018-04-22T04:18:00.920Z,404
2018-04-22T04:19:00.760Z,424
2018-04-22T04:20:00.586Z,452
2018-04-22T04:21:00.941Z,476
2018-04-22T04:22:01.061Z,504
2018-04-22T04:23:01.545Z,532
2018-04-22T04:24:01.672Z,564
2018-04-22T04:25:02.083Z,592
2018-04-22T04:26:01.828Z,620
2018-04-22T04:27:02.236Z,652
2018-04-22T04:28:02.653Z,680
2018-04-22T04:29:02.751Z,708
2018-04-22T04:30:03.784Z,740
2018-04-22T04:31:03.186Z,764
2018-04-22T04:32:03.573Z,800
2018-04-22T04:33:03.956Z,832
2018-04-22T04:34:04.250Z,864
2018-04-22T04:35:04.024Z,892
2018-04-22T04:36:04.894Z,916
2018-04-22T04:37:05.126Z,944
2018-04-22T04:38:04.804Z,968
2018-04-22T04:39:05.209Z,988
2018-04-22T04:40:05.773Z,1004
2018-04-22T04:41:05.276Z,1016
2018-04-22T04:42:05.421Z,1016
2018-04-22T04:43:05.452Z,1032
2018-04-22T04:44:05.552Z,1064
2018-04-22T04:45:06.039Z,1084
2018-04-22T04:46:05.990Z,1096
2018-04-22T04:47:05.609Z,1108
2018-04-22T04:48:06.131Z,1116
2018-04-22T04:49:06.164Z,1124
2018-04-22T04:50:06.237Z,1124
2018-04-22T04:51:06.222Z,1120
2018-04-22T04:52:05.992Z,1116
2018-04-22T04:53:06.224Z,1116
2018-04-22T04:54:06.228Z,1104
2018-04-22T04:55:07.121Z,1088
2018-04-22T04:56:06.683Z,1060
2018-04-22T04:57:07.040Z,1032
2018-04-22T04:58:07.212Z,1008
2018-04-22T04:59:07.580Z,980
2018-04-22T05:00:11.488Z,960
2018-04-22T05:01:08.039Z,956
2018-04-22T05:02:08.268Z,960
2018-04-22T05:03:08.525Z,960
2018-04-22T05:04:08.239Z,964
2018-04-22T05:05:07.865Z,984
2018-04-22T05:06:08.451Z,1016
2018-04-22T05:07:08.416Z,1040
2018-04-22T05:08:08.803Z,1076
2018-04-22T05:09:08.990Z,1092
2018-04-22T05:10:08.884Z,1128
2018-04-22T05:11:09.611Z,1144
2018-04-22T05:12:09.309Z,1188
2018-04-22T05:13:09.461Z,1212
2018-04-22T05:14:10.118Z,1304
2018-04-22T05:15:10.144Z,1372
2018-04-22T05:16:09.885Z,1536
2018-04-22T05:17:10.617Z,1708
2018-04-22T05:18:10.592Z,2032
2018-04-22T05:19:10.559Z,2508
2018-04-22T05:20:10.539Z,3016
2018-04-22T05:21:11.223Z,3332
2018-04-22T05:22:11.258Z,3260
2018-04-22T05:23:11.284Z,3868
2018-04-22T05:24:11.489Z,4748
2018-04-22T05:25:11.258Z,5064
2018-04-22T05:26:11.925Z,4600
2018-04-22T05:27:11.931Z,4604
2018-04-22T05:28:11.977Z,5168
2018-04-22T05:29:11.997Z,5832
2018-04-22T05:30:12.200Z,6236
2018-04-22T05:31:12.670Z,6320
2018-04-22T05:32:12.611Z,6676
2018-04-22T05:33:12.376Z,6660
2018-04-22T05:34:12.804Z,6428
2018-04-22T05:35:11.925Z,6360
2018-04-22T05:36:12.515Z,6272
2018-04-22T05:37:13.181Z,6236
2018-04-22T05:38:12.948Z,6076
2018-04-22T05:39:13.319Z,6412
2018-04-22T05:40:13.711Z,6988
2018-04-22T05:41:13.740Z,7004
2018-04-22T05:42:13.737Z,7108
2018-04-22T05:43:13.805Z,6496
2018-04-22T05:44:13.159Z,6888
2018-04-22T05:45:13.599Z,7924
2018-04-22T05:46:14.023Z,8416
2018-04-22T05:47:13.766Z,7656
2018-04-22T05:48:14.035Z,8356
2018-04-22T05:49:14.416Z,8388
2018-04-22T05:50:14.451Z,8016
2018-04-22T05:51:14.841Z,7460
2018-04-22T05:52:14.618Z,7512
2018-04-22T05:53:15.006Z,7872
2018-04-22T05:54:15.025Z,8472
2018-04-22T05:55:15.201Z,8812
2018-04-22T05:56:14.854Z,9080
2018-04-22T05:57:15.326Z,8964
2018-04-22T05:58:15.319Z,8868
2018-04-22T05:59:15.144Z,8740
2018-04-22T06:00:16.322Z,8296
2018-04-22T06:01:15.248Z,7948
2018-04-22T06:02:15.573Z,7840
2018-04-22T06:03:15.492Z,7872
2018-04-22T06:04:16.208Z,7940
2018-04-22T06:05:15.878Z,7920
2018-04-22T06:06:16.023Z,7872
2018-04-22T06:07:16.434Z,7884
2018-04-22T06:08:16.266Z,7916
2018-04-22T06:09:16.880Z,7916
2018-04-22T06:10:17.251Z,7860
2018-04-22T06:11:16.859Z,7772
2018-04-22T06:12:17.328Z,7728
2018-04-22T06:13:17.380Z,7720
2018-04-22T06:14:17.442Z,7608
2018-04-22T06:15:17.478Z,7516
2018-04-22T06:16:17.968Z,7504
2018-04-22T06:17:18.664Z,7488
2018-04-22T06:18:17.708Z,7400
2018-04-22T06:19:18.766Z,7276
2018-04-22T06:20:18.177Z,7228
2018-04-22T06:21:18.716Z,7212
2018-04-22T06:22:18.721Z,7180
2018-04-22T06:23:18.554Z,7132
2018-04-22T06:24:18.863Z,7088
2018-04-22T06:25:18.773Z,7048
2018-04-22T06:26:18.809Z,7000
2018-04-22T06:27:18.654Z,7052
2018-04-22T06:28:19.283Z,7140
2018-04-22T06:29:19.206Z,7120
2018-04-22T06:30:19.325Z,7064
2018-04-22T06:31:19.999Z,7064
2018-04-22T06:32:19.817Z,7024
2018-04-22T06:33:19.523Z,6864
2018-04-22T06:34:19.915Z,6760
2018-04-22T06:35:20.100Z,6728
2018-04-22T06:36:19.870Z,6668
2018-04-22T06:37:20.139Z,6712
2018-04-22T06:38:20.647Z,6748
2018-04-22T06:39:20.669Z,6704
2018-04-22T06:40:21.201Z,6604
2018-04-22T06:41:20.965Z,6548
2018-04-22T06:42:21.013Z,6492
2018-04-22T06:43:21.188Z,6428
2018-04-22T06:44:21.319Z,6364
2018-04-22T06:45:20.312Z,6304
2018-04-22T06:46:21.273Z,6264
2018-04-22T06:47:20.917Z,6200
2018-04-22T06:48:21.182Z,6192
2018-04-22T06:49:21.650Z,6204
2018-04-22T06:50:22.179Z,6204
2018-04-22T06:51:21.206Z,6216
2018-04-22T06:52:21.815Z,6220
2018-04-22T06:53:21.597Z,6208
2018-04-22T06:54:21.869Z,6180
2018-04-22T06:55:21.865Z,6156
2018-04-22T06:56:21.913Z,6172
2018-04-22T06:57:22.603Z,6180
2018-04-22T06:58:22.397Z,6208
2018-04-22T06:59:22.438Z,6292
2018-04-22T07:00:25.359Z,6340
2018-04-22T07:01:23.098Z,6272
2018-04-22T07:02:23.350Z,6244
2018-04-22T07:03:23.327Z,6308
2018-04-22T07:04:23.729Z,6384
2018-04-22T07:05:23.948Z,6360
2018-04-22T07:06:23.890Z,6360
2018-04-22T07:07:23.692Z,6332
2018-04-22T07:08:23.996Z,6232
2018-04-22T07:09:24.107Z,6148
2018-04-22T07:10:24.085Z,6180
2018-04-22T07:11:24.699Z,6312
2018-04-22T07:12:24.555Z,6508
2018-04-22T07:13:24.620Z,6800
2018-04-22T07:14:25.221Z,7192
2018-04-22T07:15:25.679Z,8000
2018-04-22T07:16:26.082Z,9464
2018-04-22T07:17:26.629Z,11712
2018-04-22T07:18:26.089Z,13820
2018-04-22T07:19:26.659Z,15104
2018-04-22T07:20:26.672Z,16864
2018-04-22T07:21:26.709Z,18752
2018-04-22T07:22:27.344Z,20864
2018-04-22T07:23:26.667Z,23264
2018-04-22T07:24:26.900Z,25344
2018-04-22T07:25:26.841Z,24896
2018-04-22T07:26:26.508Z,27552
2018-04-22T07:27:27.058Z,27712
2018-04-22T07:28:27.413Z,32064
2018-04-22T07:29:27.110Z,35360
2018-04-22T07:30:27.564Z,39712
2018-04-22T07:31:27.721Z,39104
2018-04-22T07:32:27.558Z,37152
2018-04-22T07:33:28.128Z,38944
2018-04-22T07:34:27.881Z,47872
2018-04-22T07:35:28.879Z,45280
2018-04-22T07:36:28.329Z,44480
2018-04-22T07:37:28.624Z,42208
2018-04-22T07:38:28.626Z,36416
2018-04-22T07:39:28.372Z,31104
2018-04-22T07:40:28.204Z,24608
2018-04-22T07:41:28.740Z,19552
2018-04-22T07:42:29.307Z,16832
2018-04-22T07:43:28.853Z,14092
2018-04-22T07:44:28.986Z,12136
2018-04-22T07:45:29.479Z,10692
2018-04-22T07:46:29.250Z,9788
2018-04-22T07:47:29.050Z,9172
2018-04-22T07:48:29.522Z,8820
2018-04-22T07:49:29.533Z,8652
2018-04-22T07:50:30.092Z,8792
2018-04-22T07:51:29.470Z,8812
2018-04-22T07:52:30.478Z,8424
2018-04-22T07:53:31.421Z,8048
2018-04-22T07:54:30.408Z,7808
2018-04-22T07:55:31.184Z,7732
2018-04-22T07:56:30.881Z,7728
2018-04-22T07:57:31.303Z,7532
2018-04-22T07:58:31.093Z,7380
2018-04-22T07:59:31.232Z,7444
2018-04-22T08:00:32.705Z,7508
2018-04-22T08:01:33.475Z,7536
2018-04-22T08:02:31.597Z,7696
2018-04-22T08:03:31.807Z,7912
2018-04-22T08:04:32.251Z,7840
2018-04-22T08:05:32.303Z,7844
2018-04-22T08:06:31.857Z,7984
2018-04-22T08:07:31.899Z,8472
2018-04-22T08:08:32.316Z,11044
2018-04-22T08:09:32.534Z,12836
2018-04-22T08:10:32.240Z,11384
2018-04-22T08:11:32.866Z,10352
2018-04-22T08:12:33.044Z,10212
2018-04-22T08:13:31.723Z,10396
2018-04-22T08:14:32.287Z,10096
2018-04-22T08:15:31.811Z,9768
2018-04-22T08:16:31.858Z,9772
2018-04-22T08:17:32.079Z,9736
2018-04-22T08:18:32.197Z,9628
2018-04-22T08:19:31.875Z,9728
2018-04-22T08:20:32.420Z,9772
2018-04-22T08:21:33.079Z,9352
2018-04-22T08:22:32.638Z,8928
2018-04-22T08:23:32.876Z,8744
2018-04-22T08:24:33.135Z,9228
2018-04-22T08:25:32.856Z,9636
2018-04-22T08:26:33.173Z,9640
2018-04-22T08:27:33.383Z,9364
2018-04-22T08:28:33.288Z,9256
2018-04-22T08:29:33.227Z,9428
2018-04-22T08:30:33.051Z,9408
2018-04-22T08:31:33.267Z,9540
2018-04-22T08:32:33.557Z,9868
2018-04-22T08:33:33.883Z,9644
2018-04-22T08:34:34.032Z,9412
2018-04-22T08:35:34.444Z,9676
2018-04-22T08:36:34.091Z,9728
2018-04-22T08:37:34.598Z,9448
2018-04-22T08:38:34.645Z,9472
2018-04-22T08:39:34.282Z,9632
2018-04-22T08:40:34.031Z,9732
2018-04-22T08:41:35.723Z,9820
2018-04-22T08:42:34.591Z,9532
2018-04-22T08:43:35.155Z,9024
2018-04-22T08:44:35.204Z,8720
2018-04-22T08:45:35.295Z,8284
2018-04-22T08:46:35.215Z,7912
2018-04-22T08:47:35.327Z,7744
2018-04-22T08:48:35.617Z,7576
2018-04-22T08:49:35.382Z,7440
2018-04-22T08:50:36.062Z,7376
2018-04-22T08:51:35.460Z,7328
2018-04-22T08:52:36.454Z,7264
2018-04-22T08:53:35.809Z,7216
2018-04-22T08:54:37.114Z,7144
2018-04-22T08:55:37.109Z,7040
2018-04-22T08:56:36.874Z,6984
2018-04-22T08:57:37.102Z,6932
2018-04-22T08:58:36.655Z,6940
2018-04-22T08:59:37.268Z,6936
2018-04-22T09:00:38.201Z,6836
2018-04-22T09:01:37.075Z,6772
2018-04-22T09:02:36.480Z,6812
2018-04-22T09:03:36.781Z,6992
2018-04-22T09:04:37.279Z,7160
2018-04-22T09:05:38.107Z,7216
2018-04-22T09:06:38.081Z,7240
2018-04-22T09:07:37.890Z,7160
2018-04-22T09:08:37.875Z,6840
2018-04-22T09:09:38.868Z,6596
2018-04-22T09:10:38.461Z,6408
2018-04-22T09:11:38.763Z,6132
2018-04-22T09:12:38.799Z,5868
2018-04-22T09:13:39.490Z,5768
2018-04-22T09:14:38.316Z,5748
2018-04-22T09:15:39.690Z,5720
2018-04-22T09:16:39.347Z,5792
2018-04-22T09:17:39.330Z,5716
2018-04-22T09:18:39.074Z,5680
2018-04-22T09:19:39.374Z,5304
2018-04-22T09:20:39.163Z,5416
2018-04-22T09:21:39.405Z,5724
2018-04-22T09:22:39.192Z,6020
2018-04-22T09:23:39.746Z,6140
2018-04-22T09:24:39.743Z,6488
2018-04-22T09:25:39.987Z,7336
2018-04-22T09:26:40.293Z,7320
2018-04-22T09:27:40.545Z,7496
2018-04-22T09:28:40.817Z,7868
2018-04-22T09:29:40.862Z,8100
2018-04-22T09:30:40.644Z,8148
2018-04-22T09:31:40.959Z,8380
2018-04-22T09:32:40.726Z,8528
2018-04-22T09:33:41.012Z,8424
2018-04-22T09:34:41.272Z,8008
2018-04-22T09:35:41.341Z,8140
2018-04-22T09:36:41.689Z,8284
2018-04-22T09:37:41.945Z,8512
2018-04-22T09:38:41.944Z,8700
2018-04-22T09:39:41.506Z,8644
2018-04-22T09:40:42.108Z,8380
2018-04-22T09:41:41.483Z,8028
2018-04-22T09:42:42.105Z,8396
2018-04-22T09:43:42.255Z,8452
2018-04-22T09:44:43.317Z,8400
2018-04-22T09:45:41.431Z,8264
2018-04-22T09:46:42.250Z,8160
2018-04-22T09:47:42.194Z,7924
2018-04-22T09:48:42.215Z,7744
2018-04-22T09:49:42.295Z,7724
2018-04-22T09:50:42.064Z,7660
2018-04-22T09:51:42.312Z,7528
2018-04-22T09:52:42.958Z,7492
2018-04-22T09:53:43.420Z,7588
2018-04-22T09:54:43.155Z,7648
2018-04-22T09:55:43.058Z,7400
2018-04-22T09:56:43.285Z,7256
2018-04-22T09:57:43.520Z,7192
2018-04-22T09:58:44.071Z,7072
2018-04-22T09:59:44.061Z,6896
2018-04-22T10:00:45.988Z,6684
2018-04-22T10:01:46.137Z,6560
2018-04-22T10:02:44.122Z,5904
2018-04-22T10:03:44.242Z,6228
2018-04-22T10:04:43.751Z,6508
2018-04-22T10:05:44.397Z,6684
2018-04-22T10:06:44.127Z,6636
2018-04-22T10:07:44.939Z,6512
2018-04-22T10:08:44.625Z,6472
2018-04-22T10:09:45.157Z,6480
2018-04-22T10:10:44.919Z,6404
2018-04-22T10:11:44.701Z,6436
2018-04-22T10:12:45.012Z,6256
2018-04-22T10:13:44.932Z,6548
2018-04-22T10:14:45.323Z,6836
2018-04-22T10:15:45.120Z,6620
2018-04-22T10:16:45.190Z,6372
2018-04-22T10:17:45.812Z,6144
2018-04-22T10:18:45.708Z,6112
2018-04-22T10:19:46.320Z,6144
2018-04-22T10:20:46.061Z,5464
2018-04-22T10:21:46.652Z,5616
2018-04-22T10:22:46.034Z,5812
2018-04-22T10:23:46.768Z,5824
2018-04-22T10:24:46.371Z,6012
2018-04-22T10:25:47.773Z,6320
2018-04-22T10:26:47.166Z,6408
2018-04-22T10:27:47.827Z,6320
2018-04-22T10:28:47.088Z,6404
2018-04-22T10:29:47.056Z,6276
2018-04-22T10:30:47.203Z,6036
2018-04-22T10:31:47.412Z,5820
2018-04-22T10:32:47.389Z,5776
2018-04-22T10:33:47.476Z,5804
2018-04-22T10:34:47.259Z,5896
2018-04-22T10:35:47.485Z,5852
2018-04-22T10:36:48.027Z,5736
2018-04-22T10:37:48.702Z,5692
2018-04-22T10:38:48.201Z,5544
2018-04-22T10:39:48.741Z,5296
2018-04-22T10:40:48.700Z,4380
2018-04-22T10:41:48.997Z,3436
2018-04-22T10:42:49.320Z,2996
2018-04-22T10:43:49.072Z,2764
2018-04-22T10:44:49.231Z,2620
2018-04-22T10:45:49.072Z,2520
2018-04-22T10:46:49.828Z,2428
2018-04-22T10:47:49.744Z,2368
2018-04-22T10:48:49.946Z,2316
2018-04-22T10:49:50.476Z,2280
2018-04-22T10:50:50.432Z,2264
2018-04-22T10:51:51.148Z,2244
2018-04-22T10:52:51.980Z,2232
2018-04-22T10:53:51.818Z,2204
2018-04-22T10:54:51.495Z,2192
2018-04-22T10:55:51.967Z,2152
2018-04-22T10:56:52.615Z,2136
2018-04-22T10:57:52.529Z,2124
2018-04-22T10:58:52.490Z,2132
2018-04-22T10:59:53.104Z,2156
2018-04-22T11:00:53.023Z,2140
2018-04-22T11:01:53.359Z,2184
2018-04-22T11:02:53.405Z,2200
2018-04-22T11:03:53.354Z,2220
2018-04-22T11:04:52.889Z,2228
2018-04-22T11:05:53.912Z,2216
2018-04-22T11:06:54.117Z,2180
2018-04-22T11:07:53.976Z,2152
2018-04-22T11:08:53.945Z,2148
2018-04-22T11:09:53.740Z,2128
2018-04-22T11:10:54.200Z,2104
2018-04-22T11:11:54.476Z,2084
2018-04-22T11:12:54.386Z,2064
2018-04-22T11:13:53.990Z,2048
2018-04-22T11:14:54.292Z,2040
2018-04-22T11:15:55.067Z,2016
2018-04-22T11:16:55.080Z,2012
2018-04-22T11:17:54.551Z,2020
2018-04-22T11:18:54.829Z,2012
2018-04-22T11:19:54.699Z,1984
2018-04-22T11:20:54.644Z,1968
2018-04-22T11:21:54.468Z,1952
2018-04-22T11:22:54.454Z,1956
2018-04-22T11:23:54.631Z,1964
2018-04-22T11:24:55.063Z,2000
2018-04-22T11:25:54.610Z,2028
2018-04-22T11:26:55.462Z,2076
2018-04-22T11:27:55.898Z,2052
2018-04-22T11:28:56.059Z,2020
2018-04-22T11:29:56.557Z,2020
2018-04-22T11:30:56.892Z,2036
2018-04-22T11:31:56.926Z,2032
2018-04-22T11:32:56.392Z,2016
2018-04-22T11:33:56.597Z,1988
2018-04-22T11:34:56.939Z,1964
2018-04-22T11:35:56.652Z,1920
2018-04-22T11:36:56.961Z,1880
2018-04-22T11:37:56.868Z,1832
2018-04-22T11:38:57.573Z,1812
2018-04-22T11:39:58.232Z,1784
2018-04-22T11:40:58.309Z,1704
2018-04-22T11:41:58.175Z,1604
2018-04-22T11:42:58.398Z,1612
2018-04-22T11:43:57.926Z,1604
2018-04-22T11:44:58.466Z,1596
2018-04-22T11:45:58.837Z,1600
2018-04-22T11:46:58.546Z,1592
2018-04-22T11:47:58.129Z,1600
2018-04-22T11:48:58.877Z,1624
2018-04-22T11:49:59.322Z,1640
2018-04-22T11:50:58.903Z,1624
2018-04-22T11:51:59.358Z,1636
2018-04-22T11:52:58.929Z,1636
2018-04-22T11:53:59.096Z,1624
2018-04-22T11:54:59.892Z,1648
2018-04-22T11:55:59.407Z,1628
2018-04-22T11:56:59.656Z,1580
2018-04-22T11:57:59.992Z,1652
2018-04-22T11:59:00.495Z,1680
2018-04-22T12:00:03.265Z,1648
2018-04-22T12:01:00.728Z,1628
2018-04-22T12:02:00.386Z,1620
2018-04-22T12:03:01.635Z,1596
2018-04-22T12:04:01.374Z,1608
2018-04-22T12:05:01.487Z,1600
2018-04-22T12:06:01.225Z,1580
2018-04-22T12:07:00.952Z,1520
2018-04-22T12:08:01.311Z,1468
2018-04-22T12:09:00.788Z,1492
2018-04-22T12:10:01.045Z,1560
2018-04-22T12:11:01.616Z,1612
2018-04-22T12:12:01.762Z,1636
2018-04-22T12:13:01.425Z,1636
2018-04-22T12:14:02.520Z,1608
2018-04-22T12:15:02.408Z,1568
2018-04-22T12:16:02.453Z,1536
2018-04-22T12:17:02.569Z,1488
2018-04-22T12:18:03.294Z,1464
2018-04-22T12:19:03.345Z,1440
2018-04-22T12:20:03.170Z,1436
2018-04-22T12:21:03.635Z,1440
2018-04-22T12:22:03.939Z,1456
2018-04-22T12:23:02.975Z,1472
2018-04-22T12:24:03.278Z,1476
2018-04-22T12:25:04.077Z,1480
2018-04-22T12:26:04.517Z,1496
2018-04-22T12:27:04.384Z,1524
2018-04-22T12:28:04.397Z,1552
2018-04-22T12:29:04.077Z,1580
2018-04-22T12:30:04.649Z,1612
2018-04-22T12:31:05.166Z,1644
2018-04-22T12:32:06.891Z,1688
2018-04-22T12:33:06.825Z,1740
2018-04-22T12:34:06.728Z,1784
2018-04-22T12:35:05.824Z,1804
2018-04-22T12:36:05.855Z,1832
2018-04-22T12:37:06.386Z,1840
2018-04-22T12:38:06.289Z,1840
2018-04-22T12:39:06.318Z,1864
2018-04-22T12:40:05.835Z,1876
2018-04-22T12:41:06.296Z,1952
2018-04-22T12:42:06.332Z,2036
2018-04-22T12:43:07.055Z,2120
2018-04-22T12:44:06.612Z,2164
2018-04-22T12:45:07.546Z,2184
2018-04-22T12:46:06.914Z,2192
2018-04-22T12:47:07.348Z,2168
2018-04-22T12:48:07.656Z,2120
2018-04-22T12:49:07.641Z,2064
2018-04-22T12:50:07.499Z,2028
2018-04-22T12:51:07.192Z,1984
2018-04-22T12:52:07.623Z,1932
2018-04-22T12:53:08.101Z,1856
2018-04-22T12:54:08.292Z,1796
2018-04-22T12:55:08.440Z,1772
2018-04-22T12:56:08.903Z,1764
2018-04-22T12:57:09.407Z,1756
2018-04-22T12:58:09.441Z,1740
2018-04-22T12:59:09.378Z,1716
2018-04-22T13:01:09.035Z,1620
2018-04-22T13:02:09.590Z,1572
2018-04-22T13:03:09.300Z,1612
2018-04-22T13:04:09.493Z,1604
2018-04-22T13:05:09.633Z,1580
2018-04-22T13:06:09.900Z,1568
2018-04-22T13:07:09.847Z,1576
2018-04-22T13:08:09.481Z,1580
2018-04-22T13:09:09.766Z,1572
2018-04-22T13:10:10.417Z,1552
2018-04-22T13:11:10.803Z,1516
2018-04-22T13:12:10.664Z,1484
2018-04-22T13:13:11.051Z,1464
2018-04-22T13:14:10.941Z,1452
2018-04-22T13:15:10.857Z,1412
2018-04-22T13:16:10.968Z,1428
2018-04-22T13:17:11.344Z,1324
2018-04-22T13:18:11.364Z,1364
2018-04-22T13:19:11.511Z,1500
2018-04-22T13:20:11.311Z,1556
2018-04-22T13:21:11.326Z,1600
2018-04-22T13:22:11.773Z,1636
2018-04-22T13:23:11.491Z,1716
2018-04-22T13:24:12.164Z,1788
2018-04-22T13:25:12.497Z,1792
2018-04-22T13:26:12.359Z,1824
2018-04-22T13:27:12.108Z,1888
2018-04-22T13:28:12.485Z,1856
2018-04-22T13:29:12.296Z,1736
2018-04-22T13:30:12.909Z,1644
2018-04-22T13:31:13.039Z,1552
2018-04-22T13:32:12.536Z,1488
2018-04-22T13:33:12.572Z,1432
2018-04-22T13:34:13.093Z,1380
2018-04-22T13:35:13.282Z,1344
2018-04-22T13:36:13.377Z,1324
2018-04-22T13:37:13.602Z,1304
2018-04-22T13:38:14.260Z,1308
2018-04-22T13:39:14.026Z,1304
2018-04-22T13:40:14.454Z,1296
2018-04-22T13:41:14.608Z,1288
2018-04-22T13:42:14.757Z,1280
2018-04-22T13:43:15.182Z,1292
2018-04-22T13:44:15.299Z,1320
2018-04-22T13:45:15.391Z,1344